sensor_id;sensor_type;location;lat;lon;timestamp;P1;durP1;ratioP1;P2;durP2;ratioP2
2570;SDS011;1295;51.130;6.732;2022-10-18T00:02:19;134.87;;;122.30;;
2570;SDS011;1295;51.130;6.732;2022-10-18T00:04:45;103.53;;;93.03;;
2570;SDS011;1295;51.130;6.732;2022-10-18T00:07:11;134.33;;;122.07;;
2570;SDS011;1295;51.130;6.732;2022-10-18T00:09:37;110.60;;;99.43;;
2570;SDS011;1295;51.130;6.732;2022-10-18T00:12:02;151.00;;;138.63;;
2570;SDS011;1295;51.130;6.732;2022-10-18T00:14:28;155.10;;;142.63;;
2570;SDS011;1295;51.130;6.732;2022-10-18T00:16:54;113.40;;;102.43;;
2570;SDS011;1295;51.130;6.732;2022-10-18T00:19:19;92.93;;;83.03;;
2570;SDS011;1295;51.130;6.732;2022-10-18T00:21:45;126.57;;;115.27;;
2570;SDS011;1295;51.130;6.732;2022-10-18T00:24:10;113.37;;;102.37;;
2570;SDS011;1295;51.130;6.732;2022-10-18T00:26:36;97.53;;;86.90;;
2570;SDS011;1295;51.130;6.732;2022-10-18T00:29:03;100.33;;;89.57;;
2570;SDS011;1295;51.130;6.732;2022-10-18T00:31:30;102.70;;;92.13;;
2570;SDS011;1295;51.130;6.732;2022-10-18T00:33:58;91.57;;;77.57;;
2570;SDS011;1295;51.130;6.732;2022-10-18T00:36:23;120.47;;;109.33;;
2570;SDS011;1295;51.130;6.732;2022-10-18T00:38:48;110.57;;;99.07;;
2570;SDS011;1295;51.130;6.732;2022-10-18T00:41:15;94.43;;;84.33;;
2570;SDS011;1295;51.130;6.732;2022-10-18T00:46:14;109.37;;;98.77;;
2570;SDS011;1295;51.130;6.732;2022-10-18T00:48:40;93.77;;;83.87;;
2570;SDS011;1295;51.130;6.732;2022-10-18T00:51:06;95.47;;;85.13;;
2570;SDS011;1295;51.130;6.732;2022-10-18T00:53:31;87.93;;;74.37;;
2570;SDS011;1295;51.130;6.732;2022-10-18T00:55:57;91.17;;;79.83;;
2570;SDS011;1295;51.130;6.732;2022-10-18T00:58:23;90.87;;;75.40;;
2570;SDS011;1295;51.130;6.732;2022-10-18T01:00:49;93.30;;;83.17;;
2570;SDS011;1295;51.130;6.732;2022-10-18T01:03:14;104.20;;;93.87;;
2570;SDS011;1295;51.130;6.732;2022-10-18T01:05:42;102.20;;;91.50;;
2570;SDS011;1295;51.130;6.732;2022-10-18T01:10:48;94.60;;;81.77;;
2570;SDS011;1295;51.130;6.732;2022-10-18T01:13:16;103.20;;;92.40;;
2570;SDS011;1295;51.130;6.732;2022-10-18T01:15:56;103.93;;;93.40;;
2570;SDS011;1295;51.130;6.732;2022-10-18T01:18:31;111.07;;;100.23;;
2570;SDS011;1295;51.130;6.732;2022-10-18T01:21:11;122.60;;;110.23;;
2570;SDS011;1295;51.130;6.732;2022-10-18T01:23:44;100.03;;;88.73;;
2570;SDS011;1295;51.130;6.732;2022-10-18T01:26:17;111.00;;;99.20;;
2570;SDS011;1295;51.130;6.732;2022-10-18T01:28:52;111.33;;;100.43;;
2570;SDS011;1295;51.130;6.732;2022-10-18T01:31:24;129.47;;;117.23;;
2570;SDS011;1295;51.130;6.732;2022-10-18T01:33:52;138.33;;;125.83;;
2570;SDS011;1295;51.130;6.732;2022-10-18T01:36:31;170.67;;;156.97;;
2570;SDS011;1295;51.130;6.732;2022-10-18T01:38:58;123.37;;;111.30;;
2570;SDS011;1295;51.130;6.732;2022-10-18T01:41:23;118.53;;;107.00;;
2570;SDS011;1295;51.130;6.732;2022-10-18T01:43:50;156.43;;;143.37;;
2570;SDS011;1295;51.130;6.732;2022-10-18T01:46:16;161.73;;;149.33;;
2570;SDS011;1295;51.130;6.732;2022-10-18T01:48:40;165.27;;;151.73;;
2570;SDS011;1295;51.130;6.732;2022-10-18T01:51:06;164.73;;;151.73;;
2570;SDS011;1295;51.130;6.732;2022-10-18T01:53:32;220.07;;;205.27;;
2570;SDS011;1295;51.130;6.732;2022-10-18T01:56:04;212.27;;;197.50;;
2570;SDS011;1295;51.130;6.732;2022-10-18T01:58:28;254.70;;;238.20;;
2570;SDS011;1295;51.130;6.732;2022-10-18T02:00:57;291.07;;;273.73;;
2570;SDS011;1295;51.130;6.732;2022-10-18T02:03:21;298.87;;;281.00;;
2570;SDS011;1295;51.130;6.732;2022-10-18T02:05:55;306.53;;;287.93;;
2570;SDS011;1295;51.130;6.732;2022-10-18T02:08:28;320.50;;;302.20;;
2570;SDS011;1295;51.130;6.732;2022-10-18T02:10:54;372.03;;;351.77;;
2570;SDS011;1295;51.130;6.732;2022-10-18T02:13:19;395.13;;;373.83;;
2570;SDS011;1295;51.130;6.732;2022-10-18T02:15:46;383.63;;;362.97;;
2570;SDS011;1295;51.130;6.732;2022-10-18T02:18:12;391.37;;;370.57;;
2570;SDS011;1295;51.130;6.732;2022-10-18T02:20:37;388.93;;;366.83;;
2570;SDS011;1295;51.130;6.732;2022-10-18T02:23:02;342.77;;;323.43;;
2570;SDS011;1295;51.130;6.732;2022-10-18T02:25:29;344.73;;;325.13;;
2570;SDS011;1295;51.130;6.732;2022-10-18T02:27:53;329.10;;;310.13;;
2570;SDS011;1295;51.130;6.732;2022-10-18T02:30:21;271.37;;;254.13;;
2570;SDS011;1295;51.130;6.732;2022-10-18T02:32:47;283.03;;;265.40;;
2570;SDS011;1295;51.130;6.732;2022-10-18T02:35:15;266.20;;;249.27;;
2570;SDS011;1295;51.130;6.732;2022-10-18T02:37:53;236.80;;;220.97;;
2570;SDS011;1295;51.130;6.732;2022-10-18T02:40:19;259.00;;;242.07;;
2570;SDS011;1295;51.130;6.732;2022-10-18T02:42:47;225.97;;;210.53;;
2570;SDS011;1295;51.130;6.732;2022-10-18T02:45:11;214.17;;;198.63;;
2570;SDS011;1295;51.130;6.732;2022-10-18T02:47:36;187.57;;;173.17;;
2570;SDS011;1295;51.130;6.732;2022-10-18T02:50:02;182.37;;;168.13;;
2570;SDS011;1295;51.130;6.732;2022-10-18T02:52:29;177.80;;;163.50;;
2570;SDS011;1295;51.130;6.732;2022-10-18T02:54:55;148.70;;;135.47;;
2570;SDS011;1295;51.130;6.732;2022-10-18T02:57:20;160.90;;;147.37;;
2570;SDS011;1295;51.130;6.732;2022-10-18T02:59:46;161.30;;;147.77;;
2570;SDS011;1295;51.130;6.732;2022-10-18T03:02:12;137.00;;;124.47;;
2570;SDS011;1295;51.130;6.732;2022-10-18T03:04:38;133.87;;;121.40;;
2570;SDS011;1295;51.130;6.732;2022-10-18T03:07:04;129.63;;;117.03;;
2570;SDS011;1295;51.130;6.732;2022-10-18T03:09:30;132.57;;;119.77;;
2570;SDS011;1295;51.130;6.732;2022-10-18T03:11:56;119.90;;;107.73;;
2570;SDS011;1295;51.130;6.732;2022-10-18T03:14:21;119.57;;;107.77;;
2570;SDS011;1295;51.130;6.732;2022-10-18T03:16:47;137.03;;;124.43;;
2570;SDS011;1295;51.130;6.732;2022-10-18T03:19:13;128.80;;;116.20;;
2570;SDS011;1295;51.130;6.732;2022-10-18T03:21:38;146.80;;;133.67;;
2570;SDS011;1295;51.130;6.732;2022-10-18T03:24:04;170.77;;;156.87;;
2570;SDS011;1295;51.130;6.732;2022-10-18T03:26:30;169.23;;;155.53;;
2570;SDS011;1295;51.130;6.732;2022-10-18T03:28:56;159.40;;;146.10;;
2570;SDS011;1295;51.130;6.732;2022-10-18T03:31:22;174.93;;;161.23;;
2570;SDS011;1295;51.130;6.732;2022-10-18T03:33:48;161.53;;;148.17;;
2570;SDS011;1295;51.130;6.732;2022-10-18T03:36:30;182.53;;;168.70;;
2570;SDS011;1295;51.130;6.732;2022-10-18T03:38:55;189.30;;;174.67;;
2570;SDS011;1295;51.130;6.732;2022-10-18T03:41:21;201.10;;;185.83;;
2570;SDS011;1295;51.130;6.732;2022-10-18T03:43:46;177.93;;;163.13;;
2570;SDS011;1295;51.130;6.732;2022-10-18T03:46:12;183.57;;;169.00;;
2570;SDS011;1295;51.130;6.732;2022-10-18T03:48:38;177.47;;;163.40;;
2570;SDS011;1295;51.130;6.732;2022-10-18T03:51:03;178.10;;;163.73;;
2570;SDS011;1295;51.130;6.732;2022-10-18T03:53:29;190.33;;;175.87;;
2570;SDS011;1295;51.130;6.732;2022-10-18T03:55:56;159.13;;;145.60;;
2570;SDS011;1295;51.130;6.732;2022-10-18T03:58:22;143.73;;;130.23;;
2570;SDS011;1295;51.130;6.732;2022-10-18T04:00:48;161.07;;;147.47;;
2570;SDS011;1295;51.130;6.732;2022-10-18T04:03:14;138.47;;;126.23;;
2570;SDS011;1295;51.130;6.732;2022-10-18T04:05:40;154.60;;;141.37;;
2570;SDS011;1295;51.130;6.732;2022-10-18T04:08:06;138.13;;;125.30;;
2570;SDS011;1295;51.130;6.732;2022-10-18T04:10:32;130.10;;;118.00;;
2570;SDS011;1295;51.130;6.732;2022-10-18T04:12:58;121.10;;;109.07;;
2570;SDS011;1295;51.130;6.732;2022-10-18T04:15:24;117.53;;;105.43;;
2570;SDS011;1295;51.130;6.732;2022-10-18T04:17:56;148.23;;;134.90;;
2570;SDS011;1295;51.130;6.732;2022-10-18T04:20:23;146.07;;;132.70;;
2570;SDS011;1295;51.130;6.732;2022-10-18T04:22:48;140.40;;;127.50;;
2570;SDS011;1295;51.130;6.732;2022-10-18T04:25:13;155.57;;;142.20;;
2570;SDS011;1295;51.130;6.732;2022-10-18T04:27:39;167.30;;;153.20;;
2570;SDS011;1295;51.130;6.732;2022-10-18T04:30:05;180.07;;;166.27;;
2570;SDS011;1295;51.130;6.732;2022-10-18T04:32:32;145.07;;;132.13;;
2570;SDS011;1295;51.130;6.732;2022-10-18T04:34:58;138.60;;;126.10;;
2570;SDS011;1295;51.130;6.732;2022-10-18T04:37:23;127.80;;;115.77;;
2570;SDS011;1295;51.130;6.732;2022-10-18T04:39:49;128.60;;;116.63;;
2570;SDS011;1295;51.130;6.732;2022-10-18T04:42:14;109.70;;;95.77;;
2570;SDS011;1295;51.130;6.732;2022-10-18T04:44:40;107.53;;;92.87;;
2570;SDS011;1295;51.130;6.732;2022-10-18T04:47:06;116.10;;;104.13;;
2570;SDS011;1295;51.130;6.732;2022-10-18T04:49:31;136.00;;;124.20;;
2570;SDS011;1295;51.130;6.732;2022-10-18T04:51:57;126.67;;;114.83;;
2570;SDS011;1295;51.130;6.732;2022-10-18T04:54:23;116.83;;;105.20;;
2570;SDS011;1295;51.130;6.732;2022-10-18T04:56:48;140.03;;;126.93;;
2570;SDS011;1295;51.130;6.732;2022-10-18T04:59:15;115.73;;;99.33;;
2570;SDS011;1295;51.130;6.732;2022-10-18T05:01:40;158.07;;;144.70;;
2570;SDS011;1295;51.130;6.732;2022-10-18T05:04:06;148.40;;;135.23;;
2570;SDS011;1295;51.130;6.732;2022-10-18T05:06:31;153.13;;;139.90;;
2570;SDS011;1295;51.130;6.732;2022-10-18T05:08:57;135.63;;;123.17;;
2570;SDS011;1295;51.130;6.732;2022-10-18T05:11:23;143.87;;;131.43;;
2570;SDS011;1295;51.130;6.732;2022-10-18T05:13:48;165.40;;;151.40;;
2570;SDS011;1295;51.130;6.732;2022-10-18T05:16:14;137.90;;;124.83;;
2570;SDS011;1295;51.130;6.732;2022-10-18T05:18:40;131.07;;;116.87;;
2570;SDS011;1295;51.130;6.732;2022-10-18T05:21:05;152.67;;;139.13;;
2570;SDS011;1295;51.130;6.732;2022-10-18T05:23:31;141.30;;;128.70;;
2570;SDS011;1295;51.130;6.732;2022-10-18T05:25:59;150.53;;;137.33;;
2570;SDS011;1295;51.130;6.732;2022-10-18T05:28:22;150.40;;;137.00;;
2570;SDS011;1295;51.130;6.732;2022-10-18T05:30:48;152.13;;;138.60;;
2570;SDS011;1295;51.130;6.732;2022-10-18T05:33:29;162.80;;;148.80;;
2570;SDS011;1295;51.130;6.732;2022-10-18T05:35:54;148.73;;;135.50;;
2570;SDS011;1295;51.130;6.732;2022-10-18T05:38:20;166.90;;;153.10;;
2570;SDS011;1295;51.130;6.732;2022-10-18T05:40:56;177.47;;;163.07;;
2570;SDS011;1295;51.130;6.732;2022-10-18T05:43:22;181.63;;;168.30;;
2570;SDS011;1295;51.130;6.732;2022-10-18T05:45:50;172.67;;;159.10;;
2570;SDS011;1295;51.130;6.732;2022-10-18T05:48:13;169.77;;;156.07;;
2570;SDS011;1295;51.130;6.732;2022-10-18T05:50:39;157.53;;;144.00;;
2570;SDS011;1295;51.130;6.732;2022-10-18T05:53:05;130.67;;;117.73;;
2570;SDS011;1295;51.130;6.732;2022-10-18T05:55:31;119.97;;;106.00;;
2570;SDS011;1295;51.130;6.732;2022-10-18T05:57:56;126.13;;;112.97;;
2570;SDS011;1295;51.130;6.732;2022-10-18T06:00:22;113.17;;;89.17;;
2570;SDS011;1295;51.130;6.732;2022-10-18T06:02:47;94.77;;;65.83;;
2570;SDS011;1295;51.130;6.732;2022-10-18T06:05:13;95.03;;;62.83;;
2570;SDS011;1295;51.130;6.732;2022-10-18T06:07:39;96.23;;;69.13;;
2570;SDS011;1295;51.130;6.732;2022-10-18T06:10:05;117.07;;;105.70;;
2570;SDS011;1295;51.130;6.732;2022-10-18T06:12:31;162.67;;;149.77;;
2570;SDS011;1295;51.130;6.732;2022-10-18T06:14:57;181.47;;;167.67;;
2570;SDS011;1295;51.130;6.732;2022-10-18T06:17:23;179.90;;;166.30;;
2570;SDS011;1295;51.130;6.732;2022-10-18T06:19:49;183.27;;;169.50;;
2570;SDS011;1295;51.130;6.732;2022-10-18T06:22:15;182.53;;;167.93;;
2570;SDS011;1295;51.130;6.732;2022-10-18T06:24:42;174.97;;;161.13;;
2570;SDS011;1295;51.130;6.732;2022-10-18T06:27:07;179.37;;;165.27;;
2570;SDS011;1295;51.130;6.732;2022-10-18T06:29:34;186.57;;;172.43;;
2570;SDS011;1295;51.130;6.732;2022-10-18T06:32:02;180.30;;;165.97;;
2570;SDS011;1295;51.130;6.732;2022-10-18T06:34:28;168.87;;;154.93;;
2570;SDS011;1295;51.130;6.732;2022-10-18T06:36:54;190.50;;;175.53;;
2570;SDS011;1295;51.130;6.732;2022-10-18T06:39:19;174.07;;;159.83;;
2570;SDS011;1295;51.130;6.732;2022-10-18T06:41:45;164.73;;;151.27;;
2570;SDS011;1295;51.130;6.732;2022-10-18T06:44:11;151.30;;;138.57;;
2570;SDS011;1295;51.130;6.732;2022-10-18T06:46:37;171.27;;;157.97;;
2570;SDS011;1295;51.130;6.732;2022-10-18T06:49:04;185.87;;;172.03;;
2570;SDS011;1295;51.130;6.732;2022-10-18T06:51:30;189.00;;;175.30;;
2570;SDS011;1295;51.130;6.732;2022-10-18T06:53:55;194.60;;;179.40;;
2570;SDS011;1295;51.130;6.732;2022-10-18T06:56:21;203.70;;;189.00;;
2570;SDS011;1295;51.130;6.732;2022-10-18T06:58:47;175.53;;;161.63;;
2570;SDS011;1295;51.130;6.732;2022-10-18T07:01:13;192.83;;;178.23;;
2570;SDS011;1295;51.130;6.732;2022-10-18T07:03:38;173.63;;;159.30;;
2570;SDS011;1295;51.130;6.732;2022-10-18T07:06:04;159.77;;;145.87;;
2570;SDS011;1295;51.130;6.732;2022-10-18T07:08:31;133.60;;;120.90;;
2570;SDS011;1295;51.130;6.732;2022-10-18T07:10:56;162.67;;;148.67;;
2570;SDS011;1295;51.130;6.732;2022-10-18T07:13:22;153.63;;;140.03;;
2570;SDS011;1295;51.130;6.732;2022-10-18T07:15:47;141.20;;;128.90;;
2570;SDS011;1295;51.130;6.732;2022-10-18T07:18:13;150.50;;;136.97;;
2570;SDS011;1295;51.130;6.732;2022-10-18T07:20:39;151.60;;;137.97;;
2570;SDS011;1295;51.130;6.732;2022-10-18T07:23:04;138.97;;;126.10;;
2570;SDS011;1295;51.130;6.732;2022-10-18T07:25:30;132.53;;;119.60;;
2570;SDS011;1295;51.130;6.732;2022-10-18T07:27:56;117.80;;;105.27;;
2570;SDS011;1295;51.130;6.732;2022-10-18T07:30:21;106.57;;;93.90;;
2570;SDS011;1295;51.130;6.732;2022-10-18T07:32:47;100.83;;;76.57;;
2570;SDS011;1295;51.130;6.732;2022-10-18T07:35:12;96.40;;;60.13;;
2570;SDS011;1295;51.130;6.732;2022-10-18T07:37:39;87.37;;;50.53;;
2570;SDS011;1295;51.130;6.732;2022-10-18T07:40:05;114.03;;;102.73;;
2570;SDS011;1295;51.130;6.732;2022-10-18T07:42:33;123.90;;;111.90;;
2570;SDS011;1295;51.130;6.732;2022-10-18T07:44:57;174.93;;;161.63;;
2570;SDS011;1295;51.130;6.732;2022-10-18T07:47:23;145.93;;;132.97;;
2570;SDS011;1295;51.130;6.732;2022-10-18T07:49:49;139.80;;;126.63;;
2570;SDS011;1295;51.130;6.732;2022-10-18T07:52:29;110.90;;;88.97;;
2570;SDS011;1295;51.130;6.732;2022-10-18T07:54:56;102.20;;;66.80;;
2570;SDS011;1295;51.130;6.732;2022-10-18T07:57:21;106.60;;;55.20;;
2570;SDS011;1295;51.130;6.732;2022-10-18T07:59:47;102.93;;;60.80;;
2570;SDS011;1295;51.130;6.732;2022-10-18T08:02:12;93.53;;;64.83;;
2570;SDS011;1295;51.130;6.732;2022-10-18T08:04:38;99.93;;;79.30;;
2570;SDS011;1295;51.130;6.732;2022-10-18T08:07:04;120.23;;;108.53;;
2570;SDS011;1295;51.130;6.732;2022-10-18T08:09:29;104.63;;;93.30;;
2570;SDS011;1295;51.130;6.732;2022-10-18T08:11:55;112.87;;;61.20;;
2570;SDS011;1295;51.130;6.732;2022-10-18T08:14:21;112.80;;;65.77;;
2570;SDS011;1295;51.130;6.732;2022-10-18T08:16:47;88.70;;;51.17;;
2570;SDS011;1295;51.130;6.732;2022-10-18T08:19:13;98.27;;;61.70;;
2570;SDS011;1295;51.130;6.732;2022-10-18T08:21:39;94.37;;;66.53;;
2570;SDS011;1295;51.130;6.732;2022-10-18T08:24:05;106.97;;;94.93;;
2570;SDS011;1295;51.130;6.732;2022-10-18T08:26:30;145.30;;;132.37;;
2570;SDS011;1295;51.130;6.732;2022-10-18T08:28:56;105.97;;;77.93;;
2570;SDS011;1295;51.130;6.732;2022-10-18T08:31:21;136.67;;;123.27;;
2570;SDS011;1295;51.130;6.732;2022-10-18T08:33:47;144.30;;;130.17;;
2570;SDS011;1295;51.130;6.732;2022-10-18T08:36:13;133.10;;;103.60;;
2570;SDS011;1295;51.130;6.732;2022-10-18T08:38:39;162.20;;;148.27;;
2570;SDS011;1295;51.130;6.732;2022-10-18T08:44:13;113.67;;;89.73;;
2570;SDS011;1295;51.130;6.732;2022-10-18T08:46:44;123.53;;;106.07;;
2570;SDS011;1295;51.130;6.732;2022-10-18T08:49:15;138.47;;;124.77;;
2570;SDS011;1295;51.130;6.732;2022-10-18T08:51:46;130.87;;;117.53;;
2570;SDS011;1295;51.130;6.732;2022-10-18T08:54:13;133.50;;;78.47;;
2570;SDS011;1295;51.130;6.732;2022-10-18T08:56:38;127.47;;;113.57;;
2570;SDS011;1295;51.130;6.732;2022-10-18T08:59:04;130.60;;;108.43;;
2570;SDS011;1295;51.130;6.732;2022-10-18T09:04:43;154.17;;;98.07;;
2570;SDS011;1295;51.130;6.732;2022-10-18T09:07:22;118.67;;;65.20;;
2570;SDS011;1295;51.130;6.732;2022-10-18T09:10:13;109.30;;;50.40;;
2570;SDS011;1295;51.130;6.732;2022-10-18T09:15:39;110.03;;;54.00;;
2570;SDS011;1295;51.130;6.732;2022-10-18T09:18:46;116.53;;;57.20;;
2570;SDS011;1295;51.130;6.732;2022-10-18T09:21:16;115.67;;;68.90;;
2570;SDS011;1295;51.130;6.732;2022-10-18T09:23:47;118.63;;;67.33;;
2570;SDS011;1295;51.130;6.732;2022-10-18T09:26:20;114.30;;;68.90;;
2570;SDS011;1295;51.130;6.732;2022-10-18T09:28:55;137.47;;;89.77;;
2570;SDS011;1295;51.130;6.732;2022-10-18T09:31:23;121.57;;;60.03;;
2570;SDS011;1295;51.130;6.732;2022-10-18T09:36:19;131.47;;;88.00;;
2570;SDS011;1295;51.130;6.732;2022-10-18T09:38:47;184.93;;;166.30;;
2570;SDS011;1295;51.130;6.732;2022-10-18T09:41:22;126.63;;;72.77;;
2570;SDS011;1295;51.130;6.732;2022-10-18T09:43:53;155.77;;;103.03;;
2570;SDS011;1295;51.130;6.732;2022-10-18T09:46:19;201.60;;;129.93;;
2570;SDS011;1295;51.130;6.732;2022-10-18T09:48:45;252.17;;;226.67;;
2570;SDS011;1295;51.130;6.732;2022-10-18T09:51:27;133.43;;;66.33;;
2570;SDS011;1295;51.130;6.732;2022-10-18T09:54:00;146.23;;;74.10;;
2570;SDS011;1295;51.130;6.732;2022-10-18T09:56:49;156.73;;;114.33;;
2570;SDS011;1295;51.130;6.732;2022-10-18T09:59:22;142.40;;;92.53;;
2570;SDS011;1295;51.130;6.732;2022-10-18T10:01:47;176.47;;;140.60;;
2570;SDS011;1295;51.130;6.732;2022-10-18T10:04:13;178.60;;;115.47;;
2570;SDS011;1295;51.130;6.732;2022-10-18T10:06:39;203.87;;;151.13;;
2570;SDS011;1295;51.130;6.732;2022-10-18T10:09:06;452.47;;;415.73;;
2570;SDS011;1295;51.130;6.732;2022-10-18T10:11:34;167.10;;;111.27;;
2570;SDS011;1295;51.130;6.732;2022-10-18T10:16:33;321.33;;;295.10;;
2570;SDS011;1295;51.130;6.732;2022-10-18T10:18:58;190.37;;;133.77;;
2570;SDS011;1295;51.130;6.732;2022-10-18T10:21:24;176.67;;;106.67;;
2570;SDS011;1295;51.130;6.732;2022-10-18T10:23:52;442.30;;;409.67;;
2570;SDS011;1295;51.130;6.732;2022-10-18T10:26:21;309.47;;;283.47;;
2570;SDS011;1295;51.130;6.732;2022-10-18T10:28:46;217.73;;;174.50;;
2570;SDS011;1295;51.130;6.732;2022-10-18T10:31:32;490.17;;;454.20;;
2570;SDS011;1295;51.130;6.732;2022-10-18T10:33:58;534.80;;;495.30;;
2570;SDS011;1295;51.130;6.732;2022-10-18T10:36:24;396.70;;;364.17;;
2570;SDS011;1295;51.130;6.732;2022-10-18T10:41:27;503.07;;;467.07;;
2570;SDS011;1295;51.130;6.732;2022-10-18T10:43:52;291.57;;;260.40;;
2570;SDS011;1295;51.130;6.732;2022-10-18T10:46:18;454.03;;;420.53;;
2570;SDS011;1295;51.130;6.732;2022-10-18T10:48:45;294.20;;;266.80;;
2570;SDS011;1295;51.130;6.732;2022-10-18T10:51:37;377.20;;;345.27;;
2570;SDS011;1295;51.130;6.732;2022-10-18T10:54:03;360.00;;;328.47;;
2570;SDS011;1295;51.130;6.732;2022-10-18T10:56:31;197.90;;;124.43;;
2570;SDS011;1295;51.130;6.732;2022-10-18T10:59:00;305.40;;;276.47;;
2570;SDS011;1295;51.130;6.732;2022-10-18T11:01:24;463.97;;;429.17;;
2570;SDS011;1295;51.130;6.732;2022-10-18T11:03:49;232.67;;;144.90;;
2570;SDS011;1295;51.130;6.732;2022-10-18T11:06:24;232.03;;;107.90;;
2570;SDS011;1295;51.130;6.732;2022-10-18T11:08:53;212.63;;;111.23;;
2570;SDS011;1295;51.130;6.732;2022-10-18T11:11:21;214.57;;;143.87;;
2570;SDS011;1295;51.130;6.732;2022-10-18T11:13:48;225.20;;;120.57;;
2570;SDS011;1295;51.130;6.732;2022-10-18T11:16:16;201.73;;;129.87;;
2570;SDS011;1295;51.130;6.732;2022-10-18T11:18:40;247.67;;;222.67;;
2570;SDS011;1295;51.130;6.732;2022-10-18T11:21:08;279.50;;;253.77;;
2570;SDS011;1295;51.130;6.732;2022-10-18T11:23:33;371.67;;;342.50;;
2570;SDS011;1295;51.130;6.732;2022-10-18T11:28:57;344.47;;;316.27;;
2570;SDS011;1295;51.130;6.732;2022-10-18T11:31:40;217.63;;;180.17;;
2570;SDS011;1295;51.130;6.732;2022-10-18T11:36:50;233.57;;;209.43;;
2570;SDS011;1295;51.130;6.732;2022-10-18T11:39:18;286.37;;;261.53;;
2570;SDS011;1295;51.130;6.732;2022-10-18T11:42:15;185.10;;;143.10;;
2570;SDS011;1295;51.130;6.732;2022-10-18T11:44:45;201.80;;;162.63;;
2570;SDS011;1295;51.130;6.732;2022-10-18T11:47:13;282.23;;;258.43;;
2570;SDS011;1295;51.130;6.732;2022-10-18T11:49:46;280.50;;;258.87;;
2570;SDS011;1295;51.130;6.732;2022-10-18T11:52:14;274.23;;;252.07;;
2570;SDS011;1295;51.130;6.732;2022-10-18T11:54:51;228.17;;;206.00;;
2570;SDS011;1295;51.130;6.732;2022-10-18T11:57:24;317.80;;;292.17;;
2570;SDS011;1295;51.130;6.732;2022-10-18T12:00:02;218.07;;;196.23;;
2570;SDS011;1295;51.130;6.732;2022-10-18T12:05:34;333.13;;;309.00;;
2570;SDS011;1295;51.130;6.732;2022-10-18T12:08:02;216.97;;;196.57;;
2570;SDS011;1295;51.130;6.732;2022-10-18T12:10:30;152.63;;;107.00;;
2570;SDS011;1295;51.130;6.732;2022-10-18T12:12:55;158.47;;;92.80;;
2570;SDS011;1295;51.130;6.732;2022-10-18T12:15:21;166.93;;;127.77;;
2570;SDS011;1295;51.130;6.732;2022-10-18T12:17:47;244.07;;;224.03;;
2570;SDS011;1295;51.130;6.732;2022-10-18T12:20:16;242.90;;;223.03;;
2570;SDS011;1295;51.130;6.732;2022-10-18T12:22:44;226.27;;;206.90;;
2570;SDS011;1295;51.130;6.732;2022-10-18T12:25:10;183.30;;;164.60;;
2570;SDS011;1295;51.130;6.732;2022-10-18T12:27:39;166.30;;;147.30;;
2570;SDS011;1295;51.130;6.732;2022-10-18T12:30:07;252.93;;;231.70;;
2570;SDS011;1295;51.130;6.732;2022-10-18T12:32:33;270.10;;;246.63;;
2570;SDS011;1295;51.130;6.732;2022-10-18T12:34:59;166.83;;;145.80;;
2570;SDS011;1295;51.130;6.732;2022-10-18T12:37:46;186.83;;;167.53;;
2570;SDS011;1295;51.130;6.732;2022-10-18T12:40:20;131.27;;;81.83;;
2570;SDS011;1295;51.130;6.732;2022-10-18T12:42:47;168.13;;;149.73;;
2570;SDS011;1295;51.130;6.732;2022-10-18T12:45:28;692.53;;;646.30;;
2570;SDS011;1295;51.130;6.732;2022-10-18T12:47:54;632.13;;;587.33;;
2570;SDS011;1295;51.130;6.732;2022-10-18T12:50:32;918.73;;;857.50;;
2570;SDS011;1295;51.130;6.732;2022-10-18T12:53:04;243.93;;;222.17;;
2570;SDS011;1295;51.130;6.732;2022-10-18T12:55:30;476.00;;;437.20;;
2570;SDS011;1295;51.130;6.732;2022-10-18T13:06:14;434.83;;;403.63;;
2570;SDS011;1295;51.130;6.732;2022-10-18T13:08:40;670.17;;;621.07;;
2570;SDS011;1295;51.130;6.732;2022-10-18T13:16:35;545.53;;;507.90;;
2570;SDS011;1295;51.130;6.732;2022-10-18T13:19:17;904.60;;;843.80;;
2570;SDS011;1295;51.130;6.732;2022-10-18T13:21:56;785.67;;;735.00;;
2570;SDS011;1295;51.130;6.732;2022-10-18T13:24:29;622.53;;;577.23;;
2570;SDS011;1295;51.130;6.732;2022-10-18T13:27:31;486.07;;;452.60;;
2570;SDS011;1295;51.130;6.732;2022-10-18T13:32:34;182.20;;;165.60;;
2570;SDS011;1295;51.130;6.732;2022-10-18T13:35:00;254.07;;;234.03;;
2570;SDS011;1295;51.130;6.732;2022-10-18T13:37:25;547.13;;;510.33;;
2570;SDS011;1295;51.130;6.732;2022-10-18T13:40:12;618.47;;;577.77;;
2570;SDS011;1295;51.130;6.732;2022-10-18T13:42:18;594.20;;;554.40;;
2570;SDS011;1295;51.130;6.732;2022-10-18T13:44:42;663.93;;;621.40;;
2570;SDS011;1295;51.130;6.732;2022-10-18T13:47:10;320.60;;;297.63;;
2570;SDS011;1295;51.130;6.732;2022-10-18T13:52:35;628.43;;;587.83;;
2570;SDS011;1295;51.130;6.732;2022-10-18T13:55:05;463.03;;;432.50;;
2570;SDS011;1295;51.130;6.732;2022-10-18T13:57:48;912.97;;;858.07;;
2570;SDS011;1295;51.130;6.732;2022-10-18T14:03:08;374.67;;;349.63;;
2570;SDS011;1295;51.130;6.732;2022-10-18T14:08:16;685.70;;;640.97;;
2570;SDS011;1295;51.130;6.732;2022-10-18T14:10:51;836.63;;;785.80;;
2570;SDS011;1295;51.130;6.732;2022-10-18T14:13:17;635.10;;;591.73;;
2570;SDS011;1295;51.130;6.732;2022-10-18T14:15:41;856.13;;;802.53;;
2570;SDS011;1295;51.130;6.732;2022-10-18T14:18:11;913.13;;;855.53;;
2570;SDS011;1295;51.130;6.732;2022-10-18T14:20:37;862.73;;;808.63;;
2570;SDS011;1295;51.130;6.732;2022-10-18T14:23:15;913.73;;;856.87;;
2570;SDS011;1295;51.130;6.732;2022-10-18T14:25:44;996.87;;;934.10;;
2570;SDS011;1295;51.130;6.732;2022-10-18T14:28:11;764.77;;;714.37;;
2570;SDS011;1295;51.130;6.732;2022-10-18T14:35:57;760.40;;;712.50;;
2570;SDS011;1295;51.130;6.732;2022-10-18T14:38:14;965.70;;;905.50;;
2570;SDS011;1295;51.130;6.732;2022-10-18T14:40:40;504.30;;;469.77;;
2570;SDS011;1295;51.130;6.732;2022-10-18T14:43:12;880.27;;;825.37;;
2570;SDS011;1295;51.130;6.732;2022-10-18T14:45:36;835.00;;;783.10;;
2570;SDS011;1295;51.130;6.732;2022-10-18T14:48:06;721.70;;;675.23;;
2570;SDS011;1295;51.130;6.732;2022-10-18T14:50:31;787.17;;;740.03;;
2570;SDS011;1295;51.130;6.732;2022-10-18T14:52:57;987.87;;;925.40;;
2570;SDS011;1295;51.130;6.732;2022-10-18T14:55:25;924.30;;;867.37;;
2570;SDS011;1295;51.130;6.732;2022-10-18T14:57:48;523.13;;;487.13;;
2570;SDS011;1295;51.130;6.732;2022-10-18T15:00:19;1023.50;;;958.13;;
2570;SDS011;1295;51.130;6.732;2022-10-18T15:02:43;940.77;;;883.33;;
2570;SDS011;1295;51.130;6.732;2022-10-18T15:05:17;811.00;;;762.03;;
2570;SDS011;1295;51.130;6.732;2022-10-18T15:07:44;978.40;;;916.60;;
2570;SDS011;1295;51.130;6.732;2022-10-18T15:10:19;775.63;;;729.40;;
2570;SDS011;1295;51.130;6.732;2022-10-18T15:12:45;860.57;;;809.07;;
2570;SDS011;1295;51.130;6.732;2022-10-18T15:15:12;577.87;;;539.57;;
2570;SDS011;1295;51.130;6.732;2022-10-18T15:17:39;810.83;;;761.87;;
2570;SDS011;1295;51.130;6.732;2022-10-18T15:22:43;780.30;;;733.43;;
2570;SDS011;1295;51.130;6.732;2022-10-18T15:25:14;888.50;;;834.97;;
2570;SDS011;1295;51.130;6.732;2022-10-18T15:27:44;642.20;;;605.57;;
2570;SDS011;1295;51.130;6.732;2022-10-18T15:30:14;748.17;;;704.27;;
2570;SDS011;1295;51.130;6.732;2022-10-18T15:32:44;861.97;;;810.10;;
2570;SDS011;1295;51.130;6.732;2022-10-18T15:35:05;904.63;;;847.53;;